EFW6FD EGKK-LGKL
Flight info
| Callsign | EFW6FD |
|---|---|
| Flight time | N/A |
| Altitude | 35000 |
| Route | ODVIK2Z ODVIK Y311 DVR UL9 KONAN DCT KOK UL607 REMBA DCT ARCKY DCT LIRSU DCT KRH DCT BATUB DCT TIRUL M738 NATAG DCT LORLO DCT BORMI DCT AKADO DCT LABIN DCT ELGUS DCT AIOSA DCT OKIMO DCT NOSTO UN7 ROTSA/N0442F310 UM127 ARA UL612 TRL Y115 IPTAG |
| Aircraft | A321/M-SDE3FGIJ1KRWXY/SB1 |
Departure
| Time | 2026-05-07 11:27 |
|---|---|
| Airport | London Gatwick Airport (EGKK) |
Arrival
| Time | N/A |
|---|---|
| Airport | Kalamata Airport (LGKL) |
| Time | Latitude | Longitude | Altitude | Speed | Heading |
|---|---|---|---|---|---|
| 2026-05-07 11:12 | 51.15402 | -0.18023 | 210 ft | 0 kts | 167° |
| 2026-05-07 11:19 | 51.15414 | -0.18027 | 210 ft | 3 kts | 167° |
| 2026-05-07 11:19 | 51.15440 | -0.18035 | 210 ft | 4 kts | 174° |
| 2026-05-07 11:19 | 51.15463 | -0.18032 | 210 ft | 4 kts | 218° |
| 2026-05-07 11:19 | 51.15471 | -0.18007 | 210 ft | 2 kts | 258° |
| 2026-05-07 11:20 | 51.15472 | -0.18005 | 210 ft | 0 kts | 258° |
| 2026-05-07 11:22 | 51.15467 | -0.18039 | 210 ft | 7 kts | 258° |
| 2026-05-07 11:22 | 51.15453 | -0.18134 | 212 ft | 11 kts | 243° |
| 2026-05-07 11:23 | 51.15368 | -0.18143 | 217 ft | 15 kts | 167° |
| 2026-05-07 11:23 | 51.15256 | -0.18104 | 210 ft | 18 kts | 169° |
| 2026-05-07 11:23 | 51.15189 | -0.18268 | 218 ft | 21 kts | 265° |
| 2026-05-07 11:23 | 51.15162 | -0.18505 | 217 ft | 23 kts | 257° |
| 2026-05-07 11:24 | 51.15125 | -0.18765 | 213 ft | 25 kts | 257° |
| 2026-05-07 11:24 | 51.15089 | -0.19046 | 215 ft | 27 kts | 259° |
| 2026-05-07 11:24 | 51.15052 | -0.19346 | 217 ft | 28 kts | 258° |
| 2026-05-07 11:24 | 51.15006 | -0.19659 | 213 ft | 30 kts | 256° |
| 2026-05-07 11:25 | 51.14958 | -0.19987 | 210 ft | 31 kts | 257° |
| 2026-05-07 11:25 | 51.14911 | -0.20323 | 214 ft | 31 kts | 257° |
| 2026-05-07 11:25 | 51.14874 | -0.20590 | 212 ft | 18 kts | 257° |
| 2026-05-07 11:25 | 51.14766 | -0.20709 | 214 ft | 21 kts | 204° |
| 2026-05-07 11:26 | 51.14623 | -0.20680 | 216 ft | 21 kts | 144° |
| 2026-05-07 11:26 | 51.14625 | -0.20425 | 216 ft | 34 kts | 77° |
| 2026-05-07 11:26 | 51.14725 | -0.19710 | 214 ft | 97 kts | 77° |
| 2026-05-07 11:26 | 51.14908 | -0.18369 | 213 ft | 152 kts | 77° |
| 2026-05-07 11:27 | 51.15150 | -0.16613 | 591 ft | 162 kts | 77° |
| 2026-05-07 11:27 | 51.15386 | -0.14851 | 1223 ft | 164 kts | 78° |
| 2026-05-07 11:27 | 51.15642 | -0.12969 | 1629 ft | 185 kts | 78° |
| 2026-05-07 11:27 | 51.15925 | -0.10875 | 2011 ft | 202 kts | 78° |
| 2026-05-07 11:28 | 51.16236 | -0.08606 | 2385 ft | 218 kts | 78° |
| 2026-05-07 11:28 | 51.16583 | -0.06107 | 2697 ft | 242 kts | 78° |
| 2026-05-07 11:28 | 51.16881 | -0.03396 | 3203 ft | 253 kts | 86° |
| 2026-05-07 11:28 | 51.16874 | -0.00567 | 3857 ft | 258 kts | 92° |
| 2026-05-07 11:29 | 51.16813 | 0.02307 | 4566 ft | 261 kts | 92° |
| 2026-05-07 11:29 | 51.16751 | 0.05205 | 5241 ft | 264 kts | 92° |
| 2026-05-07 11:29 | 51.16691 | 0.08147 | 5889 ft | 267 kts | 92° |